createdAt,value
2022-08-07T00:01:43.032Z,5.90
2022-08-07T00:04:27.545Z,5.45
2022-08-07T00:07:41.216Z,6.00
2022-08-07T00:10:57.472Z,4.28
2022-08-07T00:14:04.267Z,4.55
2022-08-07T00:17:10.519Z,4.45
2022-08-07T00:20:29.535Z,4.05
2022-08-07T00:23:41.215Z,3.75
2022-08-07T00:26:49.445Z,3.92
2022-08-07T00:30:06.403Z,4.18
2022-08-07T00:33:32.786Z,4.30
2022-08-07T00:36:42.950Z,4.47
2022-08-07T00:39:54.596Z,4.40
2022-08-07T00:43:00.807Z,4.18
2022-08-07T00:46:07.994Z,4.43
2022-08-07T00:49:25.002Z,4.53
2022-08-07T00:52:40.194Z,4.78
2022-08-07T00:56:03.276Z,4.38
2022-08-07T00:59:10.218Z,4.40
2022-08-07T01:02:28.472Z,3.85
2022-08-07T01:05:36.579Z,4.25
2022-08-07T01:08:53.193Z,3.38
2022-08-07T01:12:08.979Z,3.55
2022-08-07T01:15:35.996Z,2.80
2022-08-07T01:18:53.127Z,2.50
2022-08-07T01:22:03.314Z,3.08
2022-08-07T01:25:40.305Z,2.67
2022-08-07T01:28:45.809Z,2.83
2022-08-07T01:31:55.281Z,3.10
2022-08-07T01:35:08.035Z,3.08
2022-08-07T01:38:24.671Z,2.97
2022-08-07T01:41:33.936Z,3.15
2022-08-07T01:44:47.920Z,3.38
2022-08-07T01:48:19.394Z,2.78
2022-08-07T01:52:04.020Z,3.10
2022-08-07T01:54:51.628Z,3.17
2022-08-07T01:58:05.676Z,3.00
2022-08-07T02:02:02.074Z,3.00
2022-08-07T02:05:49.753Z,2.83
2022-08-07T02:09:08.426Z,3.15
2022-08-07T02:12:18.971Z,3.10
2022-08-07T02:15:32.227Z,3.10
2022-08-07T02:18:46.816Z,2.88
2022-08-07T02:21:57.034Z,3.20
2022-08-07T02:25:17.395Z,3.10
2022-08-07T02:28:34.090Z,2.75
2022-08-07T02:31:43.650Z,3.30
2022-08-07T02:34:55.198Z,3.08
2022-08-07T02:38:06.650Z,3.53
2022-08-07T02:41:21.501Z,3.35
2022-08-07T02:44:34.875Z,3.58
2022-08-07T02:47:45.572Z,3.30
2022-08-07T02:51:00.213Z,3.60
2022-08-07T02:54:10.011Z,3.70
2022-08-07T02:57:28.659Z,3.60
2022-08-07T03:00:39.593Z,3.70
2022-08-07T03:03:50.210Z,3.72
2022-08-07T03:07:10.401Z,3.50
2022-08-07T03:10:19.575Z,3.60
2022-08-07T03:13:38.877Z,3.38
2022-08-07T03:16:48.103Z,3.25
2022-08-07T03:19:55.630Z,3.08
2022-08-07T03:23:05.245Z,3.20
2022-08-07T03:26:31.051Z,2.70
2022-08-07T03:29:51.135Z,2.70
2022-08-07T03:33:03.417Z,2.90
2022-08-07T03:36:16.550Z,2.53
2022-08-07T03:39:45.973Z,2.60
2022-08-07T03:42:52.482Z,2.40
2022-08-07T03:46:02.784Z,2.72
2022-08-07T03:49:09.971Z,2.60
2022-08-07T03:52:27.413Z,2.38
2022-08-07T03:55:53.182Z,2.20
2022-08-07T03:59:09.977Z,2.10
2022-08-07T04:02:26.414Z,2.00
2022-08-07T04:05:40.491Z,1.92
2022-08-07T04:08:53.234Z,2.05
2022-08-07T04:12:27.062Z,1.98
2022-08-07T04:15:28.288Z,2.03
2022-08-07T04:18:59.799Z,2.28
2022-08-07T04:22:07.797Z,1.98
2022-08-07T04:25:24.054Z,2.83
2022-08-07T04:28:37.761Z,2.97
2022-08-07T04:32:03.451Z,2.80
2022-08-07T04:35:13.627Z,3.17
2022-08-07T04:38:25.384Z,3.53
2022-08-07T04:41:36.788Z,3.50
2022-08-07T04:44:54.628Z,3.47
2022-08-07T04:48:25.404Z,3.78
2022-08-07T04:51:56.165Z,3.63
2022-08-07T04:58:16.378Z,3.92
2022-08-07T05:00:09.765Z,3.15
2022-08-07T05:04:07.400Z,3.40
2022-08-07T05:07:30.636Z,3.13
2022-08-07T05:11:10.320Z,3.40
2022-08-07T05:14:52.665Z,2.85
2022-08-07T05:18:19.830Z,2.70
2022-08-07T05:22:00.235Z,2.72
2022-08-07T05:24:59.556Z,2.63
2022-08-07T05:28:20.397Z,2.70
2022-08-07T05:31:37.797Z,2.60
2022-08-07T05:34:48.947Z,2.40
2022-08-07T05:38:08.926Z,2.33
2022-08-07T05:41:18.450Z,2.47
2022-08-07T05:44:31.688Z,2.47
2022-08-07T05:48:01.913Z,2.53
2022-08-07T05:51:07.893Z,2.40
2022-08-07T05:54:31.513Z,2.80
2022-08-07T05:57:46.208Z,2.67
2022-08-07T06:00:55.267Z,2.58
2022-08-07T06:04:01.837Z,2.70
2022-08-07T06:07:23.119Z,2.90
2022-08-07T06:10:42.571Z,2.67
2022-08-07T06:14:12.718Z,2.47
2022-08-07T06:17:15.827Z,2.63
2022-08-07T06:20:49.771Z,2.85
2022-08-07T06:24:52.407Z,2.28
2022-08-07T06:28:00.372Z,2.50
2022-08-07T06:30:58.560Z,2.42
2022-08-07T06:34:09.637Z,2.60
2022-08-07T06:37:20.553Z,2.40
2022-08-07T06:40:35.023Z,2.72
2022-08-07T06:43:46.200Z,2.45
2022-08-07T06:47:10.134Z,2.53
2022-08-07T06:50:19.142Z,2.40
2022-08-07T06:55:28.865Z,2.30
2022-08-07T06:56:59.877Z,2.45
2022-08-07T07:00:18.152Z,1.85
2022-08-07T07:03:47.492Z,2.40
2022-08-07T07:07:00.170Z,2.00
2022-08-07T07:10:07.911Z,2.00
2022-08-07T07:13:16.983Z,2.00
2022-08-07T07:16:49.925Z,1.73
2022-08-07T07:20:03.715Z,1.80
2022-08-07T07:24:11.035Z,1.58
2022-08-07T07:26:37.931Z,1.67
2022-08-07T07:30:09.247Z,1.55
2022-08-07T07:33:17.633Z,1.45
2022-08-07T07:36:32.479Z,2.08
2022-08-07T07:39:52.399Z,1.27
2022-08-07T07:43:11.727Z,1.20
2022-08-07T07:46:53.589Z,1.48
2022-08-07T07:50:33.519Z,1.48
2022-08-07T07:53:23.231Z,1.60
2022-08-07T07:56:32.502Z,2.00
2022-08-07T07:59:51.653Z,1.98
2022-08-07T08:03:08.741Z,1.70
2022-08-07T08:06:15.045Z,1.70
2022-08-07T08:09:29.250Z,3.72
2022-08-07T08:12:52.459Z,1.85
2022-08-07T08:16:02.142Z,1.55
2022-08-07T08:20:15.999Z,1.20
2022-08-07T08:23:00.257Z,1.50
2022-08-07T08:26:26.305Z,1.60
2022-08-07T08:29:54.201Z,1.73
2022-08-07T08:33:04.053Z,1.45
2022-08-07T08:36:11.744Z,1.52
2022-08-07T08:39:19.091Z,1.60
2022-08-07T08:42:40.604Z,1.50
2022-08-07T08:46:09.756Z,1.40
2022-08-07T08:49:46.308Z,1.60
2022-08-07T08:53:19.923Z,1.52
2022-08-07T08:56:31.263Z,1.50
2022-08-07T09:00:07.197Z,1.67
2022-08-07T09:03:47.798Z,1.90
2022-08-07T09:07:46.445Z,1.98
2022-08-07T09:11:24.743Z,1.73
2022-08-07T09:16:25.380Z,1.55
2022-08-07T09:18:58.264Z,1.77
2022-08-07T09:22:23.219Z,1.83
2022-08-07T09:26:07.489Z,1.60
2022-08-07T09:30:03.470Z,2.05
2022-08-07T09:34:17.815Z,2.10
2022-08-07T09:38:12.163Z,2.10
2022-08-07T09:41:58.690Z,1.80
2022-08-07T09:46:28.595Z,1.67
2022-08-07T09:50:02.315Z,1.80
2022-08-07T09:53:04.859Z,1.80
2022-08-07T09:56:42.150Z,2.10
2022-08-07T10:00:14.834Z,1.70
2022-08-07T10:04:14.847Z,1.77
2022-08-07T10:07:39.942Z,1.65
2022-08-07T10:11:59.959Z,1.55
2022-08-07T10:15:15.352Z,1.63
2022-08-07T10:19:11.282Z,1.75
2022-08-07T10:22:54.635Z,2.33
2022-08-07T10:26:53.535Z,1.77
2022-08-07T10:30:45.327Z,1.80
2022-08-07T10:34:32.300Z,1.77
2022-08-07T10:38:20.849Z,1.50
2022-08-07T10:41:51.486Z,1.60
2022-08-07T10:45:44.799Z,1.58
2022-08-07T10:49:13.989Z,1.40
2022-08-07T10:52:31.787Z,1.60
2022-08-07T10:56:19.704Z,1.20
2022-08-07T10:59:59.528Z,1.27
2022-08-07T11:03:37.923Z,1.38
2022-08-07T11:06:57.207Z,1.60
2022-08-07T11:10:14.032Z,1.38
2022-08-07T11:14:42.522Z,1.30
2022-08-07T11:17:43.235Z,1.10
2022-08-07T11:21:14.117Z,1.80
2022-08-07T11:24:45.428Z,1.30
2022-08-07T11:28:24.780Z,1.00
2022-08-07T11:31:56.393Z,1.30
2022-08-07T11:35:09.371Z,1.90
2022-08-07T11:38:58.614Z,1.10
2022-08-07T11:42:39.555Z,1.20
2022-08-07T11:46:23.327Z,1.38
2022-08-07T11:50:11.428Z,1.35
2022-08-07T11:53:37.169Z,1.35
2022-08-07T11:57:24.986Z,1.40
2022-08-07T12:01:06.752Z,1.30
2022-08-07T12:04:46.626Z,1.05
2022-08-07T12:08:26.055Z,0.98
2022-08-07T12:12:10.913Z,1.23
2022-08-07T12:15:46.089Z,1.42
2022-08-07T12:20:02.652Z,1.20
2022-08-07T12:23:09.414Z,1.27
2022-08-07T12:27:15.908Z,1.40
2022-08-07T12:30:26.539Z,1.20
2022-08-07T12:34:00.788Z,1.10
2022-08-07T12:36:58.910Z,1.15
2022-08-07T12:40:14.898Z,1.20
2022-08-07T12:44:02.039Z,1.05
2022-08-07T12:47:37.468Z,0.90
2022-08-07T12:51:17.103Z,1.08
2022-08-07T12:54:38.732Z,1.00
2022-08-07T12:58:02.278Z,1.10
2022-08-07T13:01:29.315Z,1.30
2022-08-07T13:05:01.699Z,1.25
2022-08-07T13:08:55.206Z,1.20
2022-08-07T13:12:47.428Z,1.30
2022-08-07T13:16:16.688Z,1.20
2022-08-07T13:19:51.860Z,1.10
2022-08-07T13:24:01.927Z,1.20
2022-08-07T13:27:13.893Z,1.20
2022-08-07T13:30:41.446Z,1.17
2022-08-07T13:34:39.016Z,1.45
2022-08-07T13:38:42.214Z,1.05
2022-08-07T13:41:54.760Z,1.13
2022-08-07T13:45:20.881Z,1.10
2022-08-07T13:48:34.161Z,1.20
2022-08-07T13:52:04.990Z,1.23
2022-08-07T13:55:19.735Z,1.17
2022-08-07T13:58:57.195Z,0.95
2022-08-07T14:02:13.101Z,1.10
2022-08-07T14:05:25.371Z,1.05
2022-08-07T14:08:53.696Z,0.90
2022-08-07T14:12:07.263Z,0.98
2022-08-07T14:15:39.596Z,1.10
2022-08-07T14:18:57.194Z,1.00
2022-08-07T14:22:11.401Z,1.10
2022-08-07T14:25:25.044Z,1.00
2022-08-07T14:28:55.998Z,0.90
2022-08-07T14:32:08.422Z,0.88
2022-08-07T14:35:42.863Z,0.80
2022-08-07T14:38:50.665Z,1.27
2022-08-07T14:42:20.618Z,1.10
2022-08-07T14:45:46.982Z,0.90
2022-08-07T14:48:56.974Z,1.10
2022-08-07T14:52:10.310Z,1.00
2022-08-07T14:55:17.549Z,0.90
2022-08-07T14:58:28.152Z,1.00
2022-08-07T15:01:42.746Z,1.08
2022-08-07T15:04:57.278Z,1.00
2022-08-07T15:08:12.581Z,1.10
2022-08-07T15:15:21.110Z,1.05
2022-08-07T15:18:40.201Z,1.10
2022-08-07T15:22:04.171Z,1.00
2022-08-07T15:25:19.302Z,0.90
2022-08-07T15:28:32.504Z,1.17
2022-08-07T15:32:01.060Z,1.40
2022-08-07T15:35:16.778Z,1.05
2022-08-07T15:38:51.784Z,1.25
2022-08-07T15:42:43.967Z,1.20
2022-08-07T15:49:12.723Z,1.00
2022-08-07T15:52:30.765Z,0.93
2022-08-07T15:56:02.125Z,1.20
2022-08-07T15:59:06.321Z,1.10
2022-08-07T16:02:29.918Z,1.25
2022-08-07T16:05:37.990Z,1.00
2022-08-07T16:08:47.001Z,0.90
2022-08-07T16:12:29.130Z,0.80
2022-08-07T16:15:57.663Z,1.00
2022-08-07T16:19:43.150Z,1.00
2022-08-07T16:23:53.719Z,0.98
2022-08-07T16:27:17.836Z,0.80
2022-08-07T16:30:32.065Z,1.02
2022-08-07T16:34:03.295Z,0.82
2022-08-07T16:38:06.586Z,0.90
2022-08-07T16:41:41.190Z,1.00
2022-08-07T16:50:28.335Z,1.02
2022-08-07T16:54:01.412Z,1.10
2022-08-07T16:58:01.929Z,1.08
2022-08-07T17:01:40.986Z,0.90
2022-08-07T17:05:15.217Z,0.90
2022-08-07T17:09:09.173Z,0.90
2022-08-07T17:12:45.370Z,0.80
2022-08-07T17:16:20.200Z,0.85
2022-08-07T17:20:03.539Z,1.13
2022-08-07T17:23:40.225Z,0.82
2022-08-07T17:26:59.476Z,0.80
2022-08-07T17:30:15.024Z,0.95
2022-08-07T17:34:09.022Z,0.90
2022-08-07T17:38:09.858Z,0.82
2022-08-07T17:42:03.009Z,0.93
2022-08-07T17:44:50.718Z,0.93
2022-08-07T17:48:12.971Z,1.08
2022-08-07T17:51:23.306Z,0.85
2022-08-07T17:54:55.611Z,1.10
2022-08-07T17:59:08.919Z,1.15
2022-08-07T18:02:23.111Z,1.00
2022-08-07T18:06:01.399Z,0.90
2022-08-07T18:09:10.274Z,1.10
2022-08-07T18:12:41.971Z,0.88
2022-08-07T18:16:10.703Z,1.40
2022-08-07T18:21:12.556Z,1.10
2022-08-07T18:23:41.020Z,0.93
2022-08-07T18:26:40.678Z,0.90
2022-08-07T18:30:33.041Z,0.90
2022-08-07T18:34:53.412Z,0.95
2022-08-07T18:38:56.910Z,0.80
2022-08-07T18:42:22.389Z,1.00
2022-08-07T18:46:24.806Z,0.90
2022-08-07T18:50:39.377Z,1.10
2022-08-07T18:54:27.613Z,1.00
2022-08-07T18:58:04.740Z,1.00
2022-08-07T19:02:18.776Z,0.93
2022-08-07T19:06:04.216Z,1.15
2022-08-07T19:09:56.989Z,1.10
2022-08-07T19:13:21.944Z,0.80
2022-08-07T19:17:08.091Z,1.23
2022-08-07T19:21:08.395Z,1.20
2022-08-07T19:24:30.641Z,1.10
2022-08-07T19:28:58.488Z,1.08
2022-08-07T19:31:59.870Z,1.52
2022-08-07T19:35:03.085Z,1.20
2022-08-07T19:38:16.097Z,1.20
2022-08-07T19:42:05.680Z,1.00
2022-08-07T19:45:09.766Z,1.10
2022-08-07T19:48:18.121Z,1.00
2022-08-07T19:51:52.953Z,1.10
2022-08-07T19:54:58.456Z,1.52
2022-08-07T19:58:13.681Z,1.30
2022-08-07T20:01:20.088Z,1.02
2022-08-07T20:04:37.360Z,1.27
2022-08-07T20:07:50.714Z,1.00
2022-08-07T20:11:03.772Z,1.00
2022-08-07T20:14:32.090Z,0.77
2022-08-07T20:17:38.924Z,1.00
2022-08-07T20:20:44.736Z,0.90
2022-08-07T20:24:00.962Z,1.05
2022-08-07T20:27:11.708Z,0.85
2022-08-07T20:30:22.587Z,0.82
2022-08-07T20:33:38.319Z,1.00
2022-08-07T20:36:51.902Z,0.90
2022-08-07T20:40:04.253Z,0.90
2022-08-07T20:43:14.637Z,0.80
2022-08-07T20:46:32.520Z,0.90
2022-08-07T20:49:59.820Z,1.05
2022-08-07T20:53:15.543Z,1.00
2022-08-07T20:56:26.402Z,0.70
2022-08-07T21:00:07.937Z,0.90
2022-08-07T21:03:03.541Z,1.10
2022-08-07T21:06:21.620Z,1.30
2022-08-07T21:09:52.418Z,0.90
2022-08-07T21:13:12.912Z,1.00
2022-08-07T21:16:36.464Z,1.08
2022-08-07T21:19:51.175Z,0.93
2022-08-07T21:24:15.376Z,0.77
2022-08-07T21:28:01.742Z,0.80
2022-08-07T21:32:41.990Z,0.80
2022-08-07T21:35:34.528Z,0.75
2022-08-07T21:39:46.242Z,0.70
2022-08-07T21:42:58.827Z,1.00
2022-08-07T21:47:00.698Z,0.77
2022-08-07T21:50:42.058Z,1.00
2022-08-07T21:53:54.050Z,1.13
2022-08-07T21:57:44.362Z,1.10
2022-08-07T22:00:57.247Z,1.42
2022-08-07T22:04:09.731Z,1.63
2022-08-07T22:07:31.763Z,1.30
2022-08-07T22:10:59.514Z,1.60
2022-08-07T22:14:05.630Z,1.30
2022-08-07T22:17:26.410Z,1.73
2022-08-07T22:20:50.613Z,1.67
2022-08-07T22:24:01.970Z,1.92
2022-08-07T22:27:19.397Z,1.67
2022-08-07T22:30:27.228Z,1.60
2022-08-07T22:33:56.300Z,1.60
2022-08-07T22:37:20.007Z,1.83
2022-08-07T22:40:40.464Z,1.60
2022-08-07T22:43:51.301Z,1.80
2022-08-07T22:47:09.429Z,1.80
2022-08-07T22:50:57.513Z,1.50
2022-08-07T22:54:22.955Z,1.60
2022-08-07T22:57:59.069Z,1.63
2022-08-07T23:01:41.835Z,1.70
2022-08-07T23:06:09.553Z,1.65
2022-08-07T23:10:03.962Z,1.63
2022-08-07T23:13:03.230Z,1.70
2022-08-07T23:16:46.293Z,1.55
2022-08-07T23:20:51.258Z,1.50
2022-08-07T23:24:11.393Z,1.52
2022-08-07T23:28:22.647Z,1.42
2022-08-07T23:34:22.442Z,1.70
2022-08-07T23:36:07.784Z,1.80
2022-08-07T23:39:25.907Z,1.70
2022-08-07T23:43:23.292Z,1.88
2022-08-07T23:47:42.143Z,1.48
2022-08-07T23:53:01.038Z,1.67
2022-08-07T23:55:52.071Z,1.40
